Time;durP1;ratioP1;P1;durP2;ratioP2;P2;SDS_P1;SDS_P2;PMS_P1;PMS_P2;Temp;Humidity;BMP_temperature;BMP_pressure;BME280_temperature;BME280_humidity;BME280_pressure;Samples;Min_cycle;Max_cycle;Signal;HPM_P1;HPM_P2
2022/10/02 06:54:24;;;;;;;6.80;1.85;;;;;;;10.25;100.00;98391.00;15301245;19;20006;-77
2022/10/02 07:00:04;;;;;;;8.32;1.63;;;;;;;10.42;100.00;98371.25;15301156;19;20010;-76
2022/10/02 07:05:54;;;;;;;5.13;1.97;;;;;;;10.75;100.00;98373.25;15303566;19;20039;-75
2022/10/02 07:11:29;;;;;;;7.93;1.60;;;;;;;10.95;100.00;98344.16;15303829;19;20540;-76
2022/10/02 07:17:16;;;;;;;5.10;1.48;;;;;;;11.16;100.00;98335.59;15292836;19;20015;-76
2022/10/02 07:22:53;;;;;;;6.45;1.30;;;;;;;11.37;100.00;98327.00;15294773;19;20017;-75
2022/10/02 07:28:28;;;;;;;3.58;1.27;;;;;;;11.61;100.00;98322.59;15294517;19;20015;-76
2022/10/02 07:34:12;;;;;;;4.68;1.40;;;;;;;11.85;100.00;98334.38;15302201;19;20010;-77
2022/10/02 07:39:51;;;;;;;4.80;1.10;;;;;;;12.01;100.00;98339.78;15294007;19;20024;-78
2022/10/02 07:45:35;;;;;;;2.10;1.05;;;;;;;12.27;100.00;98343.22;15290485;19;20023;-78
2022/10/02 07:56:53;;;;;;;4.68;1.10;;;;;;;12.79;100.00;98347.22;15292796;19;20014;-81
2022/10/02 08:02:35;;;;;;;2.60;1.10;;;;;;;12.94;100.00;98339.19;15296936;19;20840;-81
2022/10/02 08:08:05;;;;;;;2.53;0.80;;;;;;;13.07;100.00;98349.44;15300502;19;20550;-80
2022/10/02 08:13:36;;;;;;;3.95;1.10;;;;;;;13.13;100.00;98355.97;15295504;19;20014;-80
2022/10/02 08:19:06;;;;;;;2.30;0.90;;;;;;;13.09;100.00;98353.63;15296143;19;20015;-80
2022/10/02 08:24:34;;;;;;;3.00;1.07;;;;;;;13.10;100.00;98359.91;15300149;19;20031;-80
2022/10/02 08:30:05;;;;;;;3.70;1.15;;;;;;;13.06;100.00;98347.75;15326055;19;20018;-80
2022/10/02 08:35:45;;;;;;;3.80;1.20;;;;;;;13.07;100.00;98350.25;15317187;19;20022;-80
2022/10/02 08:41:40;;;;;;;3.03;1.08;;;;;;;13.08;100.00;98349.25;15313882;19;20280;-79
2022/10/02 08:47:43;;;;;;;3.67;1.10;;;;;;;13.17;100.00;98355.44;15311164;19;20047;-79
2022/10/02 08:53:43;;;;;;;3.83;1.10;;;;;;;13.23;100.00;98343.06;15317198;19;20014;-80
2022/10/02 08:59:35;;;;;;;4.25;1.10;;;;;;;13.35;100.00;98327.22;15308274;19;20471;-81
2022/10/02 09:05:43;;;;;;;3.80;1.15;;;;;;;13.50;100.00;98338.16;15314242;19;20022;-80
2022/10/02 09:11:44;;;;;;;4.53;1.10;;;;;;;13.40;100.00;98323.00;15307168;19;20014;-80
2022/10/02 09:17:29;;;;;;;4.03;1.20;;;;;;;13.38;100.00;98332.28;15306267;19;20015;-81
2022/10/02 09:23:15;;;;;;;4.05;1.27;;;;;;;13.38;100.00;98326.88;15309141;19;20021;-80
2022/10/02 09:29:27;;;;;;;4.30;1.27;;;;;;;13.41;100.00;98323.84;15297686;19;20039;-79
2022/10/02 09:35:26;;;;;;;4.22;1.33;;;;;;;13.34;100.00;98320.16;15312840;19;20070;-78
2022/10/02 09:41:23;;;;;;;4.68;1.50;;;;;;;13.31;100.00;98328.63;15300298;19;20895;-80
2022/10/02 09:47:41;;;;;;;3.72;1.40;;;;;;;13.33;100.00;98337.41;15305335;19;20736;-78
2022/10/02 09:53:44;;;;;;;5.15;1.35;;;;;;;13.49;100.00;98334.59;15306166;19;20026;-79
2022/10/02 09:59:48;;;;;;;3.40;1.10;;;;;;;13.63;100.00;98326.69;15304945;19;20029;-79
2022/10/02 10:05:40;;;;;;;5.35;1.23;;;;;;;13.69;100.00;98320.56;15341368;19;20034;-78
2022/10/02 10:11:28;;;;;;;5.18;1.50;;;;;;;13.87;100.00;98328.34;15341502;19;20427;-79
2022/10/02 10:17:22;;;;;;;5.03;1.60;;;;;;;13.84;100.00;98318.69;15304031;19;20011;-79
2022/10/02 10:23:09;;;;;;;4.68;1.50;;;;;;;13.94;100.00;98314.88;15298046;19;20496;-78
2022/10/02 10:35:17;;;;;;;5.43;1.45;;;;;;;14.05;100.00;98314.44;15292990;19;20014;-86
2022/10/02 10:41:20;;;;;;;4.25;1.40;;;;;;;14.20;100.00;98313.56;15308706;19;20051;-84
2022/10/02 10:47:21;;;;;;;4.18;1.33;;;;;;;14.28;100.00;98318.91;15304622;19;20039;-84
2022/10/02 10:53:03;;;;;;;4.20;1.30;;;;;;;14.28;100.00;98324.34;15301541;19;20060;-84
2022/10/02 10:58:42;;;;;;;3.47;1.25;;;;;;;14.26;100.00;98327.22;15310837;19;20448;-86
2022/10/02 11:04:46;;;;;;;2.72;0.90;;;;;;;14.08;100.00;98322.16;15300834;19;20021;-85
2022/10/02 11:10:36;;;;;;;5.07;0.95;;;;;;;14.06;100.00;98312.56;15295853;19;20337;-85
2022/10/02 11:16:18;;;;;;;2.95;1.00;;;;;;;14.18;100.00;98314.59;13994759;19;10000131;-85
2022/10/02 11:22:15;;;;;;;3.72;0.95;;;;;;;14.30;100.00;98301.44;15292525;19;20011;-84
2022/10/02 11:28:17;;;;;;;2.22;1.00;;;;;;;14.58;100.00;98294.47;15290857;19;20041;-85
2022/10/02 11:34:15;;;;;;;2.58;0.98;;;;;;;14.76;100.00;98300.34;15303314;19;20029;-86
2022/10/02 11:39:55;;;;;;;3.63;0.98;;;;;;;14.99;100.00;98293.94;15306727;19;20100;-86
2022/10/02 11:45:46;;;;;;;2.13;0.90;;;;;;;14.98;100.00;98307.66;15305131;19;20014;-89
2022/10/02 11:51:26;;;;;;;2.13;0.80;;;;;;;14.92;100.00;98288.44;15314144;19;20019;-88
2022/10/02 11:57:13;;;;;;;2.83;0.90;;;;;;;15.05;100.00;98298.56;15303933;19;20369;-89
2022/10/02 12:02:53;;;;;;;3.47;1.17;;;;;;;15.07;100.00;98291.06;15315368;19;20464;-88
2022/10/02 12:08:29;;;;;;;3.72;1.20;;;;;;;15.00;100.00;98289.31;15316152;19;20018;-86
2022/10/02 12:14:08;;;;;;;3.72;1.30;;;;;;;14.91;100.00;98311.16;15313057;19;20022;-87
2022/10/02 12:26:57;;;;;;;3.17;0.98;;;;;;;14.57;100.00;98309.06;15322379;19;20022;-87
2022/10/02 12:31:29;;;;;;;2.38;1.02;;;;;;;14.02;100.00;98314.81;15311401;19;20018;-87
2022/10/02 12:37:06;;;;;;;3.17;1.00;;;;;;;13.97;100.00;98334.31;15308171;19;20026;-86
2022/10/02 12:43:09;;;;;;;1.75;0.80;;;;;;;13.94;100.00;98309.44;15315143;19;20035;-86
2022/10/02 12:48:52;;;;;;;1.92;0.77;;;;;;;14.16;100.00;98316.69;15302502;19;20031;-88
2022/10/02 12:55:02;;;;;;;2.90;0.80;;;;;;;14.27;100.00;98309.09;15310358;19;20014;-86
2022/10/02 13:00:36;;;;;;;3.70;1.15;;;;;;;14.34;100.00;98315.44;15305651;19;20010;-90
2022/10/02 13:06:31;;;;;;;3.85;1.05;;;;;;;14.35;100.00;98308.16;15304809;19;20022;-89
2022/10/02 13:12:19;;;;;;;2.90;1.17;;;;;;;14.31;100.00;98319.38;15311438;19;20030;-87
2022/10/02 13:17:52;;;;;;;2.40;1.00;;;;;;;14.40;100.00;98312.00;15313618;19;20059;-88
2022/10/02 13:23:32;;;;;;;3.25;1.05;;;;;;;14.51;100.00;98310.66;15308765;19;20018;-85
2022/10/02 13:29:32;;;;;;;2.50;1.15;;;;;;;14.58;100.00;98313.44;15297529;19;20033;-85
2022/10/02 13:35:26;;;;;;;3.97;1.30;;;;;;;14.61;100.00;98297.63;15299199;19;20349;-84
2022/10/02 13:40:59;;;;;;;2.70;0.90;;;;;;;14.68;100.00;98305.06;15303571;19;20033;-85
2022/10/02 13:46:46;;;;;;;2.20;0.90;;;;;;;14.77;100.00;98312.88;15296394;19;20033;-86
2022/10/02 13:52:29;;;;;;;3.42;0.90;;;;;;;14.66;100.00;98337.72;15304090;19;20488;-88
2022/10/02 13:58:34;;;;;;;1.50;0.65;;;;;;;13.52;100.00;98334.22;15308107;19;20018;-92
2022/10/02 14:04:30;;;;;;;1.80;0.60;;;;;;;12.98;100.00;98320.75;15319424;19;20011;-89
2022/10/02 14:10:09;;;;;;;3.38;0.63;;;;;;;12.56;100.00;98330.97;15314356;19;20039;-90
2022/10/02 14:22:48;;;;;;;1.85;0.65;;;;;;;12.44;100.00;98346.72;15333321;19;20015;-91
2022/10/02 14:28:31;;;;;;;2.45;0.95;;;;;;;12.46;100.00;98339.28;15335345;19;20129;-92
2022/10/02 14:34:26;;;;;;;3.33;1.00;;;;;;;12.49;100.00;98349.75;15324475;19;20010;-53
2022/10/02 14:39:52;;;;;;;2.88;0.90;;;;;;;12.45;100.00;98341.16;15298573;19;20015;-55
2022/10/02 14:45:33;;;;;;;3.00;0.80;;;;;;;12.43;100.00;98348.59;15297469;19;20358;-52
2022/10/02 14:51:17;;;;;;;3.13;0.90;;;;;;;12.37;100.00;98359.25;15288759;19;20021;-56
2022/10/02 14:57:01;;;;;;;2.10;0.77;;;;;;;12.37;100.00;98353.84;15286243;19;20010;-50
2022/10/02 15:02:44;;;;;;;2.83;0.88;;;;;;;12.36;100.00;98342.19;15292909;19;20014;-52
2022/10/02 15:08:18;;;;;;;1.52;0.65;;;;;;;12.39;100.00;98335.59;15293231;19;20026;-54
2022/10/02 15:13:50;;;;;;;2.85;1.00;;;;;;;12.39;100.00;98346.41;15295853;19;20017;-53
2022/10/02 15:19:24;;;;;;;2.42;0.80;;;;;;;12.38;100.00;98369.03;15289201;19;20017;-52
2022/10/02 15:24:58;;;;;;;2.70;1.10;;;;;;;12.26;100.00;98385.63;15291187;19;20019;-53
2022/10/02 15:30:28;;;;;;;3.05;1.00;;;;;;;12.16;100.00;98384.97;15285729;19;20335;-53
2022/10/02 15:36:22;;;;;;;4.55;1.55;;;;;;;12.02;100.00;98390.06;15290384;19;20058;-54
2022/10/02 15:42:02;;;;;;;2.65;1.20;;;;;;;11.97;100.00;98389.69;15289528;19;20122;-55
2022/10/02 15:47:53;;;;;;;2.50;1.10;;;;;;;11.91;100.00;98405.72;15185247;19;2004277;-51
2022/10/02 15:53:38;;;;;;;3.13;1.20;;;;;;;11.86;100.00;98415.19;15294951;19;20025;-54
2022/10/02 15:59:22;;;;;;;3.50;1.20;;;;;;;11.82;100.00;98431.88;15294444;19;20015;-51
2022/10/02 16:05:01;;;;;;;3.10;1.20;;;;;;;11.74;100.00;98450.78;15286842;19;20029;-78
2022/10/02 16:10:32;;;;;;;5.60;1.40;;;;;;;11.69;100.00;98471.03;15302301;19;20360;-79
2022/10/02 16:16:09;;;;;;;4.68;1.70;;;;;;;11.67;100.00;98483.84;15300786;19;20018;-80
2022/10/02 16:21:46;;;;;;;4.30;1.40;;;;;;;11.60;100.00;98481.97;15295915;19;20023;-79
2022/10/02 16:27:31;;;;;;;4.80;1.30;;;;;;;11.53;100.00;98471.81;15292266;19;20030;-79
2022/10/02 16:33:26;;;;;;;3.72;1.60;;;;;;;11.46;100.00;98472.69;15274188;19;20017;-78
2022/10/02 16:38:53;;;;;;;4.25;1.40;;;;;;;11.33;100.00;98482.09;15300097;19;20014;-79
2022/10/02 16:44:34;;;;;;;3.92;2.20;;;;;;;11.22;100.00;98485.09;15297585;19;20373;-80
2022/10/02 16:50:07;;;;;;;5.53;2.63;;;;;;;11.10;100.00;98498.88;15305759;19;20027;-79
2022/10/02 16:55:40;;;;;;;4.60;1.90;;;;;;;11.05;100.00;98511.16;15318466;19;20010;-78
2022/10/02 17:01:21;;;;;;;4.55;1.55;;;;;;;11.01;100.00;98515.19;15371302;19;20015;-79
2022/10/02 17:06:58;;;;;;;7.60;1.67;;;;;;;10.93;100.00;98511.44;15295344;19;20414;-78
2022/10/02 17:12:28;;;;;;;4.97;1.70;;;;;;;10.87;100.00;98525.56;15296958;19;20401;-81
2022/10/02 17:18:09;;;;;;;5.25;1.80;;;;;;;10.87;100.00;98546.28;15306867;19;20014;-81
2022/10/02 17:23:45;;;;;;;4.83;1.97;;;;;;;10.83;100.00;98550.28;15310684;19;20019;-80
2022/10/02 17:29:20;;;;;;;5.82;2.40;;;;;;;10.77;100.00;98566.09;15304183;19;20101;-80
2022/10/02 17:34:50;;;;;;;5.68;2.22;;;;;;;10.74;100.00;98558.34;15316178;19;20467;-79
2022/10/02 17:40:32;;;;;;;5.27;2.17;;;;;;;10.70;100.00;98556.97;15321945;19;20089;-80
2022/10/02 17:46:07;;;;;;;5.43;2.20;;;;;;;10.68;100.00;98563.50;15313732;19;20483;-81
2022/10/02 17:51:50;;;;;;;6.50;2.55;;;;;;;10.65;100.00;98570.03;15311088;19;20031;-82
2022/10/02 17:57:31;;;;;;;4.90;2.08;;;;;;;10.61;100.00;98580.31;15306408;19;20042;-80
2022/10/02 18:03:19;;;;;;;6.20;2.27;;;;;;;10.59;100.00;98582.31;15306017;19;21370;-82
2022/10/02 18:09:10;;;;;;;6.53;2.53;;;;;;;10.58;100.00;98601.31;15310446;19;20015;-83
2022/10/02 18:15:04;;;;;;;6.13;2.60;;;;;;;10.60;100.00;98619.03;15307997;19;20018;-82
2022/10/02 18:20:35;;;;;;;6.78;2.30;;;;;;;10.73;100.00;98626.72;15301769;19;20037;-80
2022/10/02 18:26:22;;;;;;;7.53;2.38;;;;;;;10.79;100.00;98628.75;15303593;19;20070;-80
2022/10/02 18:32:08;;;;;;;5.40;2.40;;;;;;;10.78;100.00;98635.16;15304289;19;20007;-82
2022/10/02 18:37:50;;;;;;;5.00;2.35;;;;;;;10.76;100.00;98645.22;15305998;19;20015;-81
2022/10/02 18:43:31;;;;;;;8.13;2.75;;;;;;;10.77;100.00;98656.88;15296563;19;20086;-81
2022/10/02 18:49:20;;;;;;;4.80;2.20;;;;;;;10.80;100.00;98653.88;15305745;19;20022;-79
2022/10/02 18:54:59;;;;;;;5.78;1.95;;;;;;;10.90;100.00;98640.28;15300385;19;20015;-80
2022/10/02 19:00:27;;;;;;;5.65;2.15;;;;;;;10.92;100.00;98652.63;15307849;19;20042;-80
2022/10/02 19:06:04;;;;;;;5.55;2.33;;;;;;;10.89;100.00;98657.47;15282002;19;20010;-80
2022/10/02 19:11:31;;;;;;;6.03;2.20;;;;;;;10.83;100.00;98668.88;15295693;19;20010;-80
2022/10/02 19:17:08;;;;;;;4.70;1.95;;;;;;;10.78;100.00;98680.97;15308401;19;20092;-79
2022/10/02 19:22:38;;;;;;;6.85;1.90;;;;;;;10.74;100.00;98692.22;15303861;19;20003;-80
2022/10/02 19:28:03;;;;;;;4.35;1.58;;;;;;;10.75;100.00;98685.81;15299282;19;20354;-78
2022/10/02 19:33:40;;;;;;;4.53;1.45;;;;;;;10.72;100.00;98683.44;15296347;19;20018;-80
2022/10/02 19:39:11;;;;;;;6.53;1.70;;;;;;;10.73;100.00;98695.91;15293249;19;20644;-78
2022/10/02 19:44:46;;;;;;;5.47;1.50;;;;;;;10.77;100.00;98687.34;15302651;19;20015;-79
2022/10/02 19:50:22;;;;;;;4.63;1.55;;;;;;;10.74;100.00;98700.31;15301089;19;20015;-80
2022/10/02 19:55:51;;;;;;;3.47;1.40;;;;;;;10.77;100.00;98705.38;15306474;19;20019;-80
2022/10/02 20:01:23;;;;;;;5.50;1.40;;;;;;;10.77;100.00;98711.59;15307419;19;20021;-81
2022/10/02 20:06:57;;;;;;;5.13;1.58;;;;;;;10.77;100.00;98713.47;15356744;19;20021;-82
2022/10/02 20:12:31;;;;;;;4.65;1.45;;;;;;;10.74;100.00;98716.47;15294881;19;20345;-80
2022/10/02 20:17:55;;;;;;;7.85;1.55;;;;;;;10.74;100.00;98732.66;15305294;19;20471;-82
2022/10/02 20:23:26;;;;;;;5.93;1.55;;;;;;;10.70;100.00;98734.81;15323568;19;20389;-82
2022/10/02 20:29:00;;;;;;;5.18;1.40;;;;;;;10.69;100.00;98743.06;15360272;19;20050;-81
2022/10/02 20:34:30;;;;;;;6.95;1.60;;;;;;;10.70;100.00;98740.19;15361018;19;20011;-81
2022/10/02 20:39:59;;;;;;;7.75;1.85;;;;;;;10.68;100.00;98765.59;15317604;19;20459;-81
2022/10/02 20:45:35;;;;;;;6.15;1.67;;;;;;;10.60;100.00;98760.97;15318936;19;20010;-81
2022/10/02 20:51:09;;;;;;;4.80;1.73;;;;;;;10.59;100.00;98773.59;15322924;19;20010;-81
2022/10/02 20:56:52;;;;;;;5.47;1.40;;;;;;;10.50;100.00;98770.97;15322558;19;20110;-81
2022/10/02 21:02:37;;;;;;;5.50;1.90;;;;;;;10.39;100.00;98775.59;15325232;19;20003;-81
2022/10/02 21:08:33;;;;;;;7.43;1.63;;;;;;;10.34;100.00;98788.63;15322177;19;20018;-81
2022/10/02 21:14:42;;;;;;;5.03;1.52;;;;;;;10.25;100.00;98800.31;15314447;19;20017;-81
2022/10/02 21:20:46;;;;;;;8.82;1.85;;;;;;;10.13;100.00;98807.72;15324752;19;20007;-81
2022/10/02 21:26:48;;;;;;;6.95;1.95;;;;;;;10.11;100.00;98815.13;15320459;19;20090;-79
2022/10/02 21:32:29;;;;;;;;;;;;;;;10.05;100.00;98824.63;15314216;19;20037;-81
2022/10/02 21:38:12;;;;;;;6.85;1.63;;;;;;;10.02;100.00;98825.75;15314739;19;19933;-82
2022/10/02 21:44:05;;;;;;;7.47;1.70;;;;;;;9.92;100.00;98822.25;15301149;19;20352;-82
2022/10/02 21:50:07;;;;;;;6.63;1.70;;;;;;;9.92;100.00;98835.72;15301183;19;20014;-81
2022/10/02 21:55:52;;;;;;;;;;;;;;;9.85;100.00;98834.63;15307558;19;20011;-81
2022/10/02 22:01:47;;;;;;;7.13;1.60;;;;;;;9.85;100.00;98838.13;15301818;19;20484;-81
2022/10/02 22:07:38;;;;;;;7.38;1.60;;;;;;;9.80;100.00;98850.34;15299474;19;20035;-81
2022/10/02 22:13:17;;;;;;;6.18;1.50;;;;;;;9.77;100.00;98846.09;15298850;19;20355;-82
2022/10/02 22:18:55;;;;;;;5.63;1.60;;;;;;;9.74;100.00;98857.16;15301254;19;20034;-81
2022/10/02 22:24:50;;;;;;;7.47;1.60;;;;;;;9.66;100.00;98846.28;15301168;19;20459;-81
2022/10/02 22:30:27;;;;;;;6.65;1.70;;;;;;;9.66;100.00;98848.97;15300377;19;20022;-81
2022/10/02 22:36:16;;;;;;;8.93;1.80;;;;;;;9.63;100.00;98860.00;15300611;19;20034;-81
2022/10/02 22:41:45;;;;;;;9.40;1.90;;;;;;;9.67;100.00;98866.81;15298298;19;20015;-81
2022/10/02 22:47:22;;;;;;;6.22;1.70;;;;;;;9.65;100.00;98868.78;15308012;19;20015;-81
2022/10/02 22:52:56;;;;;;;6.90;1.70;;;;;;;9.67;100.00;98870.34;15299372;19;20086;-81
2022/10/02 22:58:24;;;;;;;5.13;1.48;;;;;;;9.66;100.00;98873.19;15306000;19;20039;-80
2022/10/02 23:04:01;;;;;;;9.57;1.80;;;;;;;9.64;100.00;98867.09;15301199;19;20035;-80
2022/10/02 23:09:38;;;;;;;9.13;1.80;;;;;;;9.61;100.00;98861.97;15298059;19;20014;-81
2022/10/02 23:15:11;;;;;;;7.40;1.80;;;;;;;9.58;100.00;98879.28;15307365;19;20035;-81
2022/10/02 23:20:41;;;;;;;9.45;1.83;;;;;;;9.49;100.00;98880.97;14786545;19;10000732;-81
2022/10/02 23:26:15;;;;;;;8.13;1.90;;;;;;;9.48;100.00;98881.13;15296393;19;20025;-81
2022/10/02 23:31:47;;;;;;;8.75;1.95;;;;;;;9.41;100.00;98891.59;15294098;19;20021;-82
2022/10/02 23:37:22;;;;;;;7.03;1.70;;;;;;;9.42;100.00;98901.38;15300532;19;20006;-82
2022/10/02 23:42:57;;;;;;;10.70;1.90;;;;;;;9.42;100.00;98906.75;15296783;19;20070;-82
2022/10/02 23:48:24;;;;;;;9.27;1.63;;;;;;;9.43;100.00;98913.84;15308865;19;20015;-82
2022/10/02 23:54:20;;;;;;;8.02;1.70;;;;;;;9.38;100.00;98910.69;15302250;19;20017;-81
